Time;durP1;ratioP1;P1;durP2;ratioP2;P2;SDS_P1;SDS_P2;PMS_P1;PMS_P2;Temp;Humidity;BMP_temperature;BMP_pressure;BME280_temperature;BME280_humidity;BME280_pressure;Samples;Min_cycle;Max_cycle;Signal;HPM_P1;HPM_P2
2023/03/09 00:02:10;;;;;;;54.13;23.30;;;;;;;-7.97;54.82;97888.41;1790255;78;20938;-72
2023/03/09 00:04:37;;;;;;;52.93;25.03;;;;;;;-8.13;54.94;97884.22;1785834;78;21972;-71
2023/03/09 00:07:03;;;;;;;48.20;23.67;;;;;;;-8.22;55.04;97886.78;1791803;78;21292;-67
2023/03/09 00:09:30;;;;;;;41.20;18.77;;;;;;;-8.23;55.19;97886.34;1786286;78;20990;-70
2023/03/09 00:11:56;;;;;;;50.60;25.37;;;;;;;-8.23;55.32;97885.08;1795168;78;22166;-68
2023/03/09 00:14:24;;;;;;;51.33;22.97;;;;;;;-8.19;55.33;97879.18;1765080;79;21844;-72
2023/03/09 00:16:52;;;;;;;52.53;24.50;;;;;;;-8.19;55.36;97880.02;1783503;78;21069;-72
2023/03/09 00:19:26;;;;;;;;;;;;;;;-8.12;55.48;97882.13;1791957;78;21069;-61
2023/03/09 00:21:51;;;;;;;46.30;22.22;;;;;;;-8.03;55.61;97879.56;1788046;78;20143;-68
2023/03/09 00:24:20;;;;;;;45.15;22.87;;;;;;;-7.96;55.45;97885.02;1789515;78;21026;-70
2023/03/09 00:26:54;;;;;;;43.05;20.62;;;;;;;-7.93;55.44;97883.73;1790583;78;20995;-72
2023/03/09 00:29:21;;;;;;;46.90;22.05;;;;;;;-7.91;55.30;97878.25;1786798;78;21559;-62
2023/03/09 00:31:47;;;;;;;50.67;21.42;;;;;;;-7.93;55.41;97885.00;1785234;78;21512;-69
2023/03/09 00:34:16;;;;;;;45.75;20.90;;;;;;;-8.00;55.38;97880.82;1793068;78;21037;-67
2023/03/09 00:36:42;;;;;;;55.50;23.15;;;;;;;-8.03;55.42;97884.63;1786247;78;21497;-65
2023/03/09 00:39:13;;;;;;;41.88;22.35;;;;;;;-8.10;55.34;97879.15;1785009;78;21566;-70
2023/03/09 00:41:40;;;;;;;49.30;23.18;;;;;;;-8.11;55.42;97877.05;1782269;78;21146;-66
2023/03/09 00:44:08;;;;;;;58.42;26.15;;;;;;;-8.05;55.43;97885.48;1785176;79;20990;-69
2023/03/09 00:46:35;;;;;;;46.37;21.50;;;;;;;-8.08;55.23;97879.99;1780110;79;20990;-68
2023/03/09 00:49:03;;;;;;;;;;;;;;;-8.24;55.23;97882.14;1778456;78;21089;-71
2023/03/09 00:51:30;;;;;;;41.10;20.48;;;;;;;-8.42;55.37;97876.30;1779171;79;20478;-62
2023/03/09 00:53:57;;;;;;;37.70;18.15;;;;;;;-8.43;55.43;97875.89;1782502;78;21506;-68
2023/03/09 00:56:26;;;;;;;42.00;19.23;;;;;;;-8.38;55.56;97874.14;1785300;79;21484;-68
2023/03/09 00:58:54;;;;;;;35.95;18.07;;;;;;;-8.35;55.74;97880.88;1778929;78;20993;-59
2023/03/09 01:01:22;;;;;;;36.68;20.27;;;;;;;-8.43;55.54;97880.08;1781968;78;21052;-65
2023/03/09 01:03:49;;;;;;;30.68;17.92;;;;;;;-8.50;55.80;97874.20;1785672;78;21014;-64
2023/03/09 01:06:16;;;;;;;39.58;19.40;;;;;;;-8.42;55.78;97872.50;1786827;79;21374;-67
2023/03/09 01:08:45;;;;;;;39.58;20.48;;;;;;;-8.35;55.79;97869.06;1786272;79;20892;-64
2023/03/09 01:11:15;;;;;;;31.90;18.25;;;;;;;-8.29;56.05;97869.91;1788612;78;21026;-66
2023/03/09 01:13:43;;;;;;;34.40;17.32;;;;;;;-8.25;55.70;97876.66;1787615;78;20958;-67
2023/03/09 01:16:10;;;;;;;31.23;18.32;;;;;;;-8.33;55.80;97868.65;1784421;78;21040;-67
2023/03/09 01:18:36;;;;;;;34.67;19.00;;;;;;;-8.36;55.60;97872.45;1781636;78;21066;-66
2023/03/09 01:21:03;;;;;;;36.10;18.03;;;;;;;-8.43;55.63;97877.16;1778624;79;21037;-68
2023/03/09 01:23:36;;;;;;;34.25;18.92;;;;;;;-8.60;55.62;97875.04;1781313;79;21623;-71
2023/03/09 01:26:03;;;;;;;31.73;18.82;;;;;;;-8.69;55.71;97869.99;1783126;79;21518;-68
2023/03/09 01:28:30;;;;;;;;;;;;;;;-8.72;55.54;97864.94;1782432;79;21065;-61
2023/03/09 01:30:57;;;;;;;31.55;17.15;;;;;;;-8.72;56.10;97875.05;1783662;79;20104;-59
2023/03/09 01:33:23;;;;;;;41.42;19.90;;;;;;;-8.65;55.94;97874.22;1784724;78;21022;-59
2023/03/09 01:35:50;;;;;;;38.83;18.90;;;;;;;-8.67;55.73;97878.44;1782766;79;21464;-59
2023/03/09 01:38:17;;;;;;;34.13;17.77;;;;;;;-8.80;55.76;97872.52;1784611;78;21735;-59
2023/03/09 01:40:48;;;;;;;28.80;15.70;;;;;;;-8.79;56.00;97874.22;1782002;79;21104;-69
2023/03/09 01:43:39;;;;;;;29.40;16.77;;;;;;;-8.74;55.93;97871.25;1776047;78;21651;-60
2023/03/09 01:46:22;;;;;;;30.52;16.27;;;;;;;-8.76;56.02;97868.30;1735856;80;21041;-70
2023/03/09 01:49:18;;;;;;;39.90;16.60;;;;;;;-8.68;56.05;97871.66;1710217;81;21089;-71
2023/03/09 01:52:13;;;;;;;43.98;18.55;;;;;;;-8.84;55.93;97869.16;1712778;81;21080;-66
2023/03/09 01:54:48;;;;;;;34.15;17.07;;;;;;;-8.88;56.16;97867.45;1716498;81;22020;-72
2023/03/09 01:57:20;;;;;;;43.78;19.15;;;;;;;-9.03;55.95;97867.45;1714578;81;21024;-70
2023/03/09 01:59:49;;;;;;;31.60;16.20;;;;;;;-9.06;56.26;97867.45;1712907;80;20987;-71
2023/03/09 02:02:17;;;;;;;38.25;17.92;;;;;;;-8.98;56.34;97868.31;1706587;81;21015;-70
2023/03/09 02:04:49;;;;;;;31.87;16.77;;;;;;;-8.93;56.26;97867.89;1704975;82;21014;-70
2023/03/09 02:07:18;;;;;;;29.55;15.68;;;;;;;-8.83;56.64;97863.24;1717183;82;21023;-72
2023/03/09 02:09:57;;;;;;;42.27;17.77;;;;;;;-8.79;56.46;97868.73;1718200;81;21008;-71
2023/03/09 02:12:25;;;;;;;35.33;16.97;;;;;;;-8.70;56.55;97865.78;1728731;81;21721;-72
2023/03/09 02:14:52;;;;;;;;;;;;;;;-8.63;56.57;97867.45;1713241;81;21072;-70
2023/03/09 02:17:21;;;;;;;43.50;17.75;;;;;;;-8.52;56.64;97869.98;1711224;81;20532;-69
2023/03/09 02:20:11;;;;;;;41.70;18.98;;;;;;;-8.47;56.68;97872.92;1717563;81;21084;-65
2023/03/09 02:22:39;;;;;;;33.65;16.35;;;;;;;-8.42;56.61;97871.23;1720161;81;21045;-71
2023/03/09 02:25:12;;;;;;;29.63;15.78;;;;;;;-8.48;56.52;97872.52;1724515;79;21081;-70
2023/03/09 02:27:38;;;;;;;33.18;17.05;;;;;;;-8.62;56.53;97877.59;1776393;79;21022;-70
2023/03/09 02:30:09;;;;;;;32.23;16.55;;;;;;;-8.57;56.55;97875.03;1771765;79;21045;-71
2023/03/09 02:32:35;;;;;;;34.75;18.98;;;;;;;-8.53;56.59;97869.14;1773212;79;21516;-72
2023/03/09 02:35:03;;;;;;;36.05;19.65;;;;;;;-8.50;56.58;97870.83;1731782;81;21013;-71
2023/03/09 02:37:36;;;;;;;35.33;19.02;;;;;;;-8.47;56.55;97876.72;1734737;80;20973;-71
2023/03/09 02:40:10;;;;;;;38.25;17.48;;;;;;;-8.43;56.57;97870.83;1738931;80;20996;-71
2023/03/09 02:42:39;;;;;;;39.33;19.73;;;;;;;-8.40;56.81;97873.34;1739876;80;21125;-71
2023/03/09 02:45:07;;;;;;;33.90;18.62;;;;;;;-8.37;56.67;97875.84;1736753;81;21124;-71
2023/03/09 02:47:36;;;;;;;36.95;20.12;;;;;;;-8.39;56.64;97869.13;1740640;81;20979;-71
2023/03/09 02:50:03;;;;;;;33.53;18.30;;;;;;;-8.39;56.74;97872.50;1739060;80;20990;-71
2023/03/09 02:52:29;;;;;;;41.50;20.08;;;;;;;-8.39;56.75;97867.43;1739753;80;21049;-70
2023/03/09 02:54:56;;;;;;;33.47;18.53;;;;;;;-8.40;56.85;97875.88;1738447;81;21061;-70
2023/03/09 02:57:23;;;;;;;39.20;20.43;;;;;;;-8.38;57.00;97876.67;1737216;81;21383;-70
2023/03/09 02:59:49;;;;;;;37.60;19.77;;;;;;;-8.35;56.89;97882.15;1735939;80;21461;-67
2023/03/09 03:02:16;;;;;;;37.53;19.83;;;;;;;-8.38;56.89;97876.67;1737050;81;21418;-69
2023/03/09 03:04:43;;;;;;;36.20;18.67;;;;;;;-8.41;56.68;97881.77;1699819;82;21501;-71
2023/03/09 03:07:11;;;;;;;35.10;18.90;;;;;;;-8.47;56.69;97879.25;1733634;80;21028;-66
2023/03/09 03:09:38;;;;;;;34.65;19.85;;;;;;;-8.52;56.67;97887.27;1736338;81;21009;-69
2023/03/09 03:12:06;;;;;;;42.43;20.10;;;;;;;-8.58;56.70;97883.48;1735675;81;20975;-67
2023/03/09 03:14:32;;;;;;;43.38;20.37;;;;;;;-8.65;56.63;97885.61;1704352;82;20999;-71
2023/03/09 03:16:59;;;;;;;40.40;21.17;;;;;;;-8.80;56.89;97885.16;1741390;81;21059;-69
2023/03/09 03:19:26;;;;;;;41.53;19.85;;;;;;;-8.77;56.92;97887.70;1741127;80;20996;-67
2023/03/09 03:21:53;;;;;;;35.43;18.98;;;;;;;-8.77;56.95;97884.33;1738894;80;21042;-59
2023/03/09 03:24:19;;;;;;;40.15;19.77;;;;;;;-8.69;57.16;97892.77;1737204;80;21060;-64
2023/03/09 03:26:46;;;;;;;39.50;19.77;;;;;;;-8.61;57.18;97888.55;1739816;81;21054;-66
2023/03/09 03:29:13;;;;;;;36.37;19.70;;;;;;;-8.55;57.27;97892.33;1737375;81;21350;-67
2023/03/09 03:31:40;;;;;;;40.48;20.45;;;;;;;-8.44;57.33;97896.13;1733478;81;21010;-69
2023/03/09 03:34:06;;;;;;;40.70;20.00;;;;;;;-8.42;57.05;97892.75;1736814;81;21125;-70
2023/03/09 03:36:33;;;;;;;32.63;19.00;;;;;;;-8.46;57.04;97894.84;1704045;82;21011;-62
2023/03/09 03:39:00;;;;;;;33.33;16.05;;;;;;;-8.46;57.09;97899.91;1742123;81;21033;-69
2023/03/09 03:41:26;;;;;;;35.23;17.30;;;;;;;-8.43;57.06;97906.27;1742647;80;20950;-64
2023/03/09 03:43:53;;;;;;;29.25;15.72;;;;;;;-8.49;57.27;97907.94;1779369;78;21552;-68
2023/03/09 03:46:20;;;;;;;32.45;16.77;;;;;;;-8.50;57.16;97908.36;1783793;78;21065;-62
2023/03/09 03:48:46;;;;;;;30.00;16.13;;;;;;;-8.44;57.36;97905.82;1780668;79;21073;-66
2023/03/09 03:51:13;;;;;;;36.05;18.07;;;;;;;-8.39;57.40;97909.62;1778709;78;21080;-63
2023/03/09 03:53:42;;;;;;;32.38;18.23;;;;;;;-8.38;57.22;97912.11;1772157;78;21046;-63
2023/03/09 03:56:09;;;;;;;36.53;17.55;;;;;;;-8.36;57.29;97911.69;1782653;78;21021;-66
2023/03/09 03:58:38;;;;;;;38.75;20.75;;;;;;;-8.39;57.16;97918.05;1784392;78;21045;-64
2023/03/09 04:01:06;;;;;;;39.35;21.30;;;;;;;-8.51;57.09;97911.75;1777476;78;21018;-66
2023/03/09 04:03:33;;;;;;;41.48;20.97;;;;;;;-8.59;57.14;97912.17;1782597;78;21089;-66
2023/03/09 04:06:02;;;;;;;44.20;22.32;;;;;;;-8.57;57.35;97909.20;1784651;78;21054;-67
2023/03/09 04:08:30;;;;;;;46.10;20.40;;;;;;;-8.56;57.23;97909.64;1775459;78;21084;-71
2023/03/09 04:10:57;;;;;;;36.58;19.17;;;;;;;-8.59;57.28;97907.11;1778610;78;21052;-66
2023/03/09 04:13:24;;;;;;;38.58;21.42;;;;;;;-8.52;57.62;97910.04;1786612;78;21149;-60
2023/03/09 04:15:51;;;;;;;43.33;17.07;;;;;;;-8.41;57.71;97914.67;1783588;78;21073;-64
2023/03/09 04:18:17;;;;;;;35.53;17.73;;;;;;;-8.44;57.44;97912.15;1779701;78;21047;-60
2023/03/09 04:20:45;;;;;;;30.10;17.10;;;;;;;-8.50;57.46;97909.62;1787413;78;21092;-64
2023/03/09 04:23:11;;;;;;;38.67;18.40;;;;;;;-8.44;57.68;97916.38;1788364;78;21108;-60
2023/03/09 04:25:38;;;;;;;32.35;15.58;;;;;;;-8.38;57.63;97914.64;1784140;79;21029;-64
2023/03/09 04:28:05;;;;;;;40.83;19.70;;;;;;;-8.37;57.68;97915.50;1783868;78;20953;-71
2023/03/09 04:30:31;;;;;;;36.23;17.37;;;;;;;-8.34;57.69;97911.27;1781684;78;21067;-71
2023/03/09 04:32:58;;;;;;;26.33;15.40;;;;;;;-8.30;57.76;97913.80;1782507;78;21001;-65
2023/03/09 04:35:25;;;;;;;38.28;16.50;;;;;;;-8.31;57.51;97909.59;1781613;78;20994;-68
2023/03/09 04:37:52;;;;;;;35.43;16.73;;;;;;;-8.31;57.63;97910.43;1775855;78;21145;-70
2023/03/09 04:40:21;;;;;;;32.38;14.93;;;;;;;-8.28;57.64;97910.42;1784451;78;21517;-70
2023/03/09 04:42:47;;;;;;;25.85;13.05;;;;;;;-8.33;57.55;97904.09;1784139;79;21147;-70
2023/03/09 04:45:14;;;;;;;33.43;14.07;;;;;;;-8.40;57.68;97910.05;1781296;78;20943;-70
2023/03/09 04:47:44;;;;;;;41.58;16.17;;;;;;;-8.38;57.78;97907.05;1781877;79;21522;-71
2023/03/09 04:50:11;;;;;;;32.03;14.85;;;;;;;-8.45;57.68;97900.34;1777901;78;20971;-70
2023/03/09 04:52:37;;;;;;;;;;;;;;;-8.45;57.89;97902.88;1778557;77;21040;-69
2023/03/09 04:55:05;;;;;;;36.60;15.40;;;;;;;-8.38;57.86;97899.45;1776558;79;20360;-71
2023/03/09 04:57:32;;;;;;;30.40;14.33;;;;;;;-8.38;57.86;97899.45;1780983;78;21992;-70
2023/03/09 04:59:58;;;;;;;33.67;14.70;;;;;;;-8.37;58.00;97898.63;1778705;79;21445;-71
2023/03/09 05:02:28;;;;;;;32.70;14.50;;;;;;;-8.33;58.12;97900.30;1782451;78;21119;-70
2023/03/09 05:04:55;;;;;;;35.78;16.80;;;;;;;-8.31;58.05;97896.94;1740973;80;21058;-71
2023/03/09 05:07:23;;;;;;;38.05;18.65;;;;;;;-8.26;58.10;97907.88;1780978;78;21074;-71
2023/03/09 05:09:50;;;;;;;51.98;17.25;;;;;;;-8.23;58.19;97904.06;1782459;78;21034;-69
2023/03/09 05:12:16;;;;;;;40.80;16.53;;;;;;;-8.22;58.00;97906.61;1787328;79;21006;-67
2023/03/09 05:14:43;;;;;;;48.93;18.63;;;;;;;-8.36;57.99;97903.26;1786174;78;21961;-66
2023/03/09 05:17:09;;;;;;;45.20;17.83;;;;;;;-8.26;58.11;97915.47;1781419;78;21579;-69
2023/03/09 05:19:37;;;;;;;39.05;17.27;;;;;;;-8.26;58.11;97915.47;1786086;78;21385;-70
2023/03/09 05:22:05;;;;;;;37.17;16.75;;;;;;;-8.26;58.14;97907.88;1779287;79;21500;-70
2023/03/09 05:24:32;;;;;;;31.48;16.90;;;;;;;-8.23;58.13;97911.66;1780958;78;21004;-68
2023/03/09 05:26:59;;;;;;;52.30;18.98;;;;;;;-8.20;58.12;97907.89;1777585;79;21045;-68
2023/03/09 05:29:25;;;;;;;41.13;17.03;;;;;;;-8.16;58.06;97914.62;1782976;78;20963;-70
2023/03/09 05:31:52;;;;;;;38.03;15.03;;;;;;;-8.13;58.11;97912.08;1785601;78;21891;-68
2023/03/09 05:34:19;;;;;;;37.63;16.80;;;;;;;-8.07;58.21;97906.99;1785565;78;21584;-70
2023/03/09 05:36:49;;;;;;;40.50;16.55;;;;;;;-7.97;58.38;97912.90;1779498;78;21049;-69
2023/03/09 05:39:16;;;;;;;49.50;18.55;;;;;;;-7.85;58.37;97906.95;1778470;78;21034;-70
2023/03/09 05:41:43;;;;;;;38.50;17.30;;;;;;;-7.69;58.36;97903.52;1781982;79;21052;-71
2023/03/09 05:44:10;;;;;;;57.97;17.93;;;;;;;-7.52;58.30;97907.25;1745834;78;21024;-70
2023/03/09 05:46:37;;;;;;;52.50;19.45;;;;;;;-7.43;58.33;97911.84;1731249;80;21884;-68
2023/03/09 05:49:05;;;;;;;49.40;20.27;;;;;;;-7.30;58.54;97911.80;1732738;80;21006;-68
2023/03/09 05:51:34;;;;;;;40.50;20.55;;;;;;;-7.08;58.80;97913.37;1702664;82;21069;-69
2023/03/09 05:54:07;;;;;;;41.02;17.70;;;;;;;-6.84;58.85;97914.05;1729931;81;21018;-67
2023/03/09 05:56:34;;;;;;;46.45;17.40;;;;;;;-6.66;58.74;97908.86;1734418;80;20963;-65
2023/03/09 05:59:01;;;;;;;45.43;19.65;;;;;;;-6.48;58.83;97914.64;1736603;80;20985;-69
2023/03/09 06:01:29;;;;;;;44.98;19.07;;;;;;;-6.29;58.78;97913.63;1733685;79;20993;-71
2023/03/09 06:03:57;;;;;;;44.42;19.82;;;;;;;-6.13;58.77;97917.72;1735811;80;21003;-71
2023/03/09 06:06:24;;;;;;;44.40;20.10;;;;;;;-6.02;58.75;97921.83;1737540;80;21623;-64
2023/03/09 06:08:50;;;;;;;;;;;;;;;-5.91;58.72;97928.87;1739281;81;21025;-67
2023/03/09 06:11:17;;;;;;;47.53;20.80;;;;;;;-5.82;58.71;97927.54;1731680;80;20273;-65
2023/03/09 06:13:44;;;;;;;65.95;27.20;;;;;;;-5.73;58.78;97937.59;1727566;80;20999;-70
2023/03/09 06:16:16;;;;;;;60.20;25.02;;;;;;;-5.62;58.84;97929.86;1729458;80;21049;-70
2023/03/09 06:18:44;;;;;;;58.35;21.42;;;;;;;-5.46;58.84;97927.95;1726865;81;21109;-66
2023/03/09 06:21:11;;;;;;;54.45;22.75;;;;;;;-5.26;58.83;97931.12;1736002;80;21073;-68
2023/03/09 06:23:38;;;;;;;70.30;26.87;;;;;;;-5.04;59.10;97938.45;1688941;82;21518;-67
2023/03/09 06:26:08;;;;;;;75.20;31.90;;;;;;;-4.79;59.13;97938.95;1731807;81;21283;-71
2023/03/09 06:28:36;;;;;;;141.97;56.60;;;;;;;-4.60;59.28;97931.89;1729576;81;21371;-70
2023/03/09 06:31:12;;;;;;;124.30;45.23;;;;;;;-4.42;59.28;97934.17;1731218;80;20954;-68
2023/03/09 06:33:43;;;;;;;63.48;27.93;;;;;;;-4.23;59.37;97931.30;1719471;80;21038;-65
2023/03/09 06:36:18;;;;;;;88.70;32.48;;;;;;;-4.04;59.23;97932.67;1680008;83;21069;-67
2023/03/09 06:38:47;;;;;;;88.00;32.67;;;;;;;-3.90;59.37;97934.54;1725809;81;20963;-68
2023/03/09 06:41:15;;;;;;;87.92;33.75;;;;;;;-3.68;59.48;97944.36;1730435;79;21576;-68
2023/03/09 06:43:45;;;;;;;77.25;34.30;;;;;;;-3.53;59.45;97940.23;1750277;79;21058;-62
2023/03/09 06:46:11;;;;;;;101.70;35.83;;;;;;;-3.35;59.43;97947.14;1769075;79;21068;-61
2023/03/09 06:48:38;;;;;;;83.05;35.48;;;;;;;-3.25;59.48;97946.06;1770562;79;20998;-60
2023/03/09 06:51:06;;;;;;;93.43;38.10;;;;;;;-3.14;59.55;97947.96;1776382;79;21151;-61
2023/03/09 06:53:32;;;;;;;;;;;;;;;-2.96;59.73;97950.14;1744857;80;21763;-61
2023/03/09 06:56:00;;;;;;;76.03;34.97;;;;;;;-2.74;59.68;97949.69;1772222;79;20142;-61
2023/03/09 06:58:27;;;;;;;71.02;30.30;;;;;;;-2.67;59.48;97951.21;1768228;79;20984;-60
2023/03/09 07:00:54;;;;;;;81.53;34.67;;;;;;;-2.61;59.74;97956.63;1776519;79;21069;-60
2023/03/09 07:03:21;;;;;;;74.05;33.55;;;;;;;-2.50;59.82;97951.66;1778744;79;20967;-62
2023/03/09 07:05:47;;;;;;;76.53;33.70;;;;;;;-2.28;59.96;97953.72;1777878;79;21014;-61
2023/03/09 07:08:14;;;;;;;78.62;34.15;;;;;;;-2.01;60.04;97959.06;1777702;79;21501;-62
2023/03/09 07:10:41;;;;;;;70.95;31.87;;;;;;;-1.73;60.15;97962.59;1786307;79;21607;-60
2023/03/09 07:13:14;;;;;;;27.22;13.22;;;;;;;-1.42;60.26;97961.33;1784994;79;21044;-62
2023/03/09 07:15:40;;;;;;;22.90;10.82;;;;;;;-1.10;60.13;97960.03;1782563;79;21575;-61
2023/03/09 07:18:07;;;;;;;25.40;11.00;;;;;;;-0.85;60.03;97966.12;1770077;79;21526;-62
2023/03/09 07:20:34;;;;;;;20.45;7.95;;;;;;;-0.60;59.98;97957.70;1775123;79;21674;-61
2023/03/09 07:23:01;;;;;;;12.80;6.97;;;;;;;-0.25;60.14;97959.19;1777265;79;20923;-60
2023/03/09 07:25:28;;;;;;;33.20;13.15;;;;;;;0.29;60.24;97964.66;1781563;79;21070;-61
2023/03/09 07:27:55;;;;;;;17.12;7.55;;;;;;;0.74;60.12;97966.97;1776002;79;20951;-60
2023/03/09 07:30:22;;;;;;;17.30;7.17;;;;;;;1.11;59.84;97963.89;1780490;79;20976;-62
2023/03/09 07:32:48;;;;;;;14.68;6.67;;;;;;;1.36;59.78;97974.09;1785206;79;21496;-60
2023/03/09 07:35:15;;;;;;;11.22;5.25;;;;;;;1.70;59.84;97970.22;1782560;79;20990;-60
2023/03/09 07:37:42;;;;;;;10.03;4.93;;;;;;;1.99;59.61;97972.48;1780326;79;21489;-62
2023/03/09 07:40:11;;;;;;;12.33;5.78;;;;;;;2.32;59.58;97977.12;1778349;79;21603;-61
2023/03/09 07:42:53;;;;;;;19.60;6.17;;;;;;;2.57;59.40;97983.82;1782073;79;21073;-61
2023/03/09 07:45:23;;;;;;;17.37;8.28;;;;;;;2.84;59.48;97985.21;1784127;79;21490;-62
2023/03/09 07:47:50;;;;;;;;;;;;;;;3.09;59.32;97989.30;1784271;79;21481;-62
2023/03/09 07:50:18;;;;;;;11.75;4.45;;;;;;;3.28;58.96;97988.85;1779201;79;20550;-61
2023/03/09 07:52:46;;;;;;;8.68;3.65;;;;;;;3.38;59.20;97992.30;1784756;78;20965;-63
2023/03/09 07:55:14;;;;;;;;;;;;;;;3.64;59.43;97991.94;1745450;80;21065;-62
2023/03/09 07:57:43;;;;;;;4.53;1.85;;;;;;;4.22;59.32;97986.53;1779763;79;20167;-62
2023/03/09 08:00:14;;;;;;;6.50;2.40;;;;;;;4.92;59.15;97999.41;1785440;78;21133;-62
2023/03/09 08:02:42;;;;;;;3.70;2.30;;;;;;;5.19;58.80;97995.84;1776660;78;21608;-63
2023/03/09 08:05:11;;;;;;;2.75;1.82;;;;;;;5.23;58.78;97990.04;1782126;78;21369;-60
2023/03/09 08:07:38;;;;;;;4.37;2.40;;;;;;;5.23;58.76;97997.80;1774041;79;21073;-64
2023/03/09 08:10:06;;;;;;;7.65;2.30;;;;;;;5.29;58.72;97994.88;1772337;78;21632;-63
2023/03/09 08:12:36;;;;;;;2.87;1.67;;;;;;;5.26;58.54;97995.05;1778339;79;22183;-64
2023/03/09 08:15:04;;;;;;;3.62;2.67;;;;;;;5.11;58.40;97993.66;1778505;79;21054;-63
2023/03/09 08:17:34;;;;;;;4.97;2.77;;;;;;;5.09;58.35;97993.36;1774979;78;22169;-62
2023/03/09 08:20:00;;;;;;;;;;;;;;;5.34;58.61;97996.31;1777237;79;21596;-62
2023/03/09 08:22:30;;;;;;;4.05;2.25;;;;;;;5.57;57.88;97987.33;1778740;79;20109;-62
2023/03/09 08:24:58;;;;;;;3.70;2.20;;;;;;;5.88;58.24;97997.72;1782245;79;21116;-61
2023/03/09 08:27:25;;;;;;;2.33;1.42;;;;;;;6.30;58.25;97991.90;1784302;78;21077;-63
2023/03/09 08:29:58;;;;;;;2.55;1.00;;;;;;;7.24;58.25;97997.58;1785018;77;21076;-61
2023/03/09 08:32:25;;;;;;;3.92;1.62;;;;;;;7.79;58.36;97995.45;1779710;78;21526;-63
2023/03/09 08:34:55;;;;;;;1.95;1.22;;;;;;;8.49;58.24;97995.75;1778318;79;20943;-63
2023/03/09 08:37:22;;;;;;;1.90;1.00;;;;;;;9.30;58.15;97992.84;1777374;79;21010;-64
2023/03/09 08:39:52;;;;;;;2.77;1.10;;;;;;;9.77;57.45;97991.70;1715663;80;21013;-65
2023/03/09 08:42:19;;;;;;;4.08;1.27;;;;;;;9.84;57.48;97995.55;1776607;78;21078;-63
2023/03/09 08:44:47;;;;;;;2.87;1.50;;;;;;;9.69;57.10;97996.63;1751871;78;21497;-62
2023/03/09 08:47:13;;;;;;;1.72;1.02;;;;;;;9.71;57.42;97995.58;1727990;80;21081;-63
2023/03/09 08:49:41;;;;;;;1.42;0.93;;;;;;;10.29;57.19;97999.70;1725264;81;21557;-61
2023/03/09 08:52:08;;;;;;;1.45;1.00;;;;;;;10.77;56.81;97999.61;1706994;82;21074;-65
2023/03/09 08:54:35;;;;;;;2.75;1.10;;;;;;;10.91;56.62;97997.26;1674993;83;21093;-65
2023/03/09 08:57:02;;;;;;;3.25;1.65;;;;;;;11.11;56.56;98006.18;1674665;83;20952;-66
2023/03/09 08:59:28;;;;;;;1.53;1.00;;;;;;;11.32;56.20;98007.62;1672053;84;21018;-68
2023/03/09 09:01:55;;;;;;;1.77;1.00;;;;;;;11.15;55.18;98006.31;1674447;83;21307;-65
2023/03/09 09:04:21;;;;;;;3.65;1.45;;;;;;;10.42;54.64;98011.36;1669781;84;21580;-66
2023/03/09 09:06:48;;;;;;;2.45;1.52;;;;;;;9.98;54.46;98007.13;1675198;82;21043;-64
2023/03/09 09:09:15;;;;;;;2.37;1.47;;;;;;;9.76;54.50;98017.42;1667507;84;21019;-66
2023/03/09 09:11:41;;;;;;;3.83;1.50;;;;;;;9.79;54.59;98019.80;1665981;82;20956;-65
2023/03/09 09:14:08;;;;;;;1.60;1.07;;;;;;;10.28;54.25;98016.31;1673276;83;21576;-63
2023/03/09 09:16:35;;;;;;;4.50;1.33;;;;;;;11.03;53.95;98017.68;1673553;84;21215;-63
2023/03/09 09:19:02;;;;;;;2.70;1.05;;;;;;;11.53;53.04;98020.78;1674058;82;21026;-62
2023/03/09 09:21:30;;;;;;;4.78;1.50;;;;;;;11.57;52.95;98019.61;1670177;83;20979;-63
2023/03/09 09:23:57;;;;;;;4.08;2.95;;;;;;;11.78;53.11;98017.90;1672942;84;21014;-67
2023/03/09 09:26:23;;;;;;;6.45;2.80;;;;;;;11.86;52.92;98020.77;1651447;84;21066;-66
2023/03/09 09:28:52;;;;;;;4.30;1.42;;;;;;;11.28;51.80;98027.91;1655795;83;21046;-67
2023/03/09 09:31:20;;;;;;;3.83;1.97;;;;;;;10.83;51.44;98027.03;1675640;82;20991;-66
2023/03/09 09:33:47;;;;;;;4.37;1.85;;;;;;;10.55;51.27;98030.87;1673624;83;21517;-65
2023/03/09 09:36:17;;;;;;;7.00;2.00;;;;;;;10.51;51.27;98043.31;1674887;84;21058;-66
2023/03/09 09:38:43;;;;;;;4.85;1.80;;;;;;;10.67;51.39;98032.55;1670918;83;21108;-66
2023/03/09 09:41:21;;;;;;;2.60;1.30;;;;;;;11.18;51.10;98045.27;1667659;83;21073;-65
2023/03/09 09:43:52;;;;;;;7.00;1.00;;;;;;;11.50;50.72;98044.55;1670686;81;22367;-67
2023/03/09 09:46:22;;;;;;;4.53;0.60;;;;;;;11.21;48.97;98047.64;1709076;82;21569;-65
2023/03/09 09:48:50;;;;;;;1.92;0.50;;;;;;;9.94;47.83;98055.23;1716234;81;21656;-65
2023/03/09 09:51:58;;;;;;;2.15;0.60;;;;;;;8.88;46.66;98067.72;1720930;81;21016;-65
2023/03/09 09:54:51;;;;;;;3.67;1.00;;;;;;;8.16;45.96;98055.95;1718295;82;21570;-62
2023/03/09 09:57:45;;;;;;;3.22;1.80;;;;;;;8.36;46.49;98065.06;1713189;82;21049;-63
2023/03/09 10:00:23;;;;;;;4.40;1.98;;;;;;;8.52;45.36;98068.38;1714410;82;20963;-63
2023/03/09 10:03:10;;;;;;;12.43;4.42;;;;;;;8.96;44.92;98070.65;1650405;85;21115;-62
2023/03/09 10:05:53;;;;;;;2.25;1.00;;;;;;;8.84;44.78;98062.81;1652086;84;21062;-63
2023/03/09 10:08:28;;;;;;;6.75;1.72;;;;;;;9.58;45.01;98069.90;1681426;83;21149;-63
2023/03/09 10:10:59;;;;;;;6.40;2.22;;;;;;;10.38;44.65;98068.16;1675023;84;21507;-63
2023/03/09 10:13:40;;;;;;;2.17;1.12;;;;;;;11.41;44.80;98065.22;1715239;82;21451;-64
2023/03/09 10:16:15;;;;;;;1.87;1.10;;;;;;;11.20;43.39;98061.62;1679473;83;21070;-64
2023/03/09 10:18:47;;;;;;;1.47;1.07;;;;;;;11.82;43.93;98067.72;1668644;84;21064;-69
2023/03/09 10:21:27;;;;;;;2.33;0.82;;;;;;;12.74;43.48;98062.95;1673584;84;21093;-69
2023/03/09 10:23:56;;;;;;;4.15;1.07;;;;;;;13.49;43.52;98060.23;1652828;84;21118;-67
2023/03/09 10:26:43;;;;;;;1.10;0.80;;;;;;;14.27;43.50;98065.23;1672550;83;21078;-65
2023/03/09 10:29:21;;;;;;;2.62;2.25;;;;;;;14.46;43.06;98059.99;1715359;82;20945;-63
2023/03/09 10:32:00;;;;;;;5.97;0.80;;;;;;;14.48;42.76;98079.08;1717245;81;21046;-63
2023/03/09 10:34:29;;;;;;;1.37;0.53;;;;;;;14.18;42.22;98064.73;1715938;82;21074;-62
2023/03/09 10:37:06;;;;;;;5.58;1.42;;;;;;;14.30;41.93;98085.95;1710028;82;21106;-61
2023/03/09 10:39:41;;;;;;;1.17;0.68;;;;;;;13.87;41.24;98081.85;1709138;82;21093;-61
2023/03/09 10:42:22;;;;;;;1.98;1.07;;;;;;;13.53;40.99;98079.52;1712282;82;20986;-62
2023/03/09 10:45:07;;;;;;;2.10;1.17;;;;;;;13.89;40.87;98077.28;1723122;79;21049;-64
2023/03/09 10:48:04;;;;;;;3.15;1.40;;;;;;;15.44;41.31;98069.43;1745128;80;21037;-64
2023/03/09 10:50:35;;;;;;;6.30;2.80;;;;;;;17.37;40.72;98067.44;1630194;85;21604;-63
2023/03/09 10:53:42;;;;;;;6.85;2.92;;;;;;;19.56;40.28;98065.35;1626359;86;22654;-64
2023/03/09 10:56:25;;;;;;;2.02;1.47;;;;;;;20.46;39.97;98072.09;1594858;87;21071;-64
2023/03/09 10:59:09;;;;;;;7.03;4.17;;;;;;;21.54;39.31;98061.27;1554596;90;21047;-64
2023/03/09 11:01:40;;;;;;;2.80;0.75;;;;;;;23.49;38.96;98052.44;1595425;88;21125;-63
2023/03/09 11:04:27;;;;;;;0.93;0.62;;;;;;;22.74;36.18;98062.67;1566550;90;21069;-62
2023/03/09 11:06:59;;;;;;;3.80;2.00;;;;;;;20.31;35.09;98068.87;1574208;88;21068;-62
2023/03/09 11:09:37;;;;;;;7.12;3.22;;;;;;;18.07;33.66;98077.36;1601515;88;21019;-63
2023/03/09 11:12:31;;;;;;;4.22;1.05;;;;;;;16.84;33.73;98081.56;1593824;88;21059;-62
2023/03/09 11:15:01;;;;;;;;;;;;;;;16.90;33.42;98087.54;1575684;89;21108;-64
2023/03/09 11:17:44;;;;;;;5.05;2.75;;;;;;;18.63;32.85;98076.83;1597308;88;20173;-63
2023/03/09 11:20:38;;;;;;;2.08;1.12;;;;;;;20.76;33.69;98079.20;1595217;88;21051;-62
2023/03/09 11:23:40;;;;;;;3.12;1.90;;;;;;;21.02;32.62;98075.34;1574171;89;21125;-62
2023/03/09 11:26:30;;;;;;;2.70;1.20;;;;;;;20.21;32.00;98078.85;1620943;85;21042;-63
2023/03/09 11:29:17;;;;;;;2.67;1.02;;;;;;;18.19;31.38;98083.67;1676759;84;21011;-60
2023/03/09 11:31:44;;;;;;;4.53;2.00;;;;;;;18.04;31.90;98079.00;1731323;81;21580;-61
2023/03/09 11:34:35;;;;;;;6.15;2.00;;;;;;;18.42;31.09;98084.70;1732215;82;21018;-61
2023/03/09 11:37:36;;;;;;;4.70;1.92;;;;;;;18.17;30.86;98085.63;1719585;82;21051;-62
2023/03/09 11:40:20;;;;;;;1.65;1.05;;;;;;;17.63;29.51;98089.34;1724824;81;20995;-60
2023/03/09 11:43:06;;;;;;;3.15;1.70;;;;;;;15.22;29.44;98084.23;1745773;80;21520;-63